• Join FlightAware (Why Join?)
  • Login
  • US Flag 
11:42PM EDT


 

Airport Tracker/Info


-or-


 

Live Flight TrackerFlight Track Log ✈ N208LS ✈ 17-May-2013 ✈ KPDK - KMDQ

Flight Track Log - Related Links

Times and Time Zones

All times are in EDT time to prevent confusion due to time zone crossing. See the N208LS flight status page for this flight to view local times or setup timezone preferences in your user account.

Time Position Orientation Groundspeed Altitude Reporting Facility
EDT Latitude Longitude Course Direction KTS MPH feet Rate Location/Type
07:45PM 33.8667 -84.3667 261° West 136 157 2,500  Level Atlanta TRACON
07:46PM 33.9000 -84.4167 309° West 138 159 3,300 720 Climbing Atlanta TRACON
07:47PM 33.9167 -84.4500 301° West 141 162 4,000 780 Climbing Atlanta TRACON
07:48PM 33.9333 -84.4833 301° West 143 165 4,800 720 Climbing Atlanta TRACON
07:49PM 33.9500 -84.5333 292° West 144 166 5,500 540 Climbing Atlanta TRACON
07:50PM 33.9706 -84.5747 301° West 152 175 6,000 240 Climbing Atlanta Center
07:51PM 33.9933 -84.6200 301° West 157 181 6,000  Level Atlanta Center
07:52PM 34.0139 -84.6728 295° West 167 192 6,000  Level Atlanta Center
07:53PM 34.0386 -84.7206 302° West 172 198 6,000  Level Atlanta Center
07:54PM 34.0614 -84.7733 298° West 172 198 6,000  Level Atlanta Center
07:55PM 34.0839 -84.8214 299° West 172 198 6,000  Level Atlanta Center
07:56PM 34.1086 -84.8767 298° West 177 204 6,000  Level Atlanta Center
07:57PM 34.1314 -84.9272 299° West 177 204 6,000  Level Atlanta Center
07:58PM 34.1539 -84.9775 298° West 177 204 6,000  Level Atlanta Center
07:59PM 34.1764 -85.0256 300° West 177 204 6,000  Level Atlanta Center
08:00PM 34.1989 -85.0736 300° West 177 204 6,000  Level Atlanta Center
08:01PM 34.2236 -85.1242 301° West 172 198 6,000  Level Atlanta Center
08:02PM 34.2461 -85.1747 298° West 172 198 6,000  Level Atlanta Center
08:03PM 34.2664 -85.2253 296° West 177 204 6,000  Level Atlanta Center
08:04PM 34.2911 -85.2758 301° West 177 204 6,000  Level Atlanta Center
08:05PM 34.3136 -85.3264 298° West 177 204 6,000  Level Atlanta Center
08:06PM 34.3339 -85.3694 300° West 177 204 6,000  Level Atlanta Center
08:07PM 34.3542 -85.4228 295° West 177 204 6,000  Level Atlanta Center
08:08PM 34.3767 -85.4708 300° West 177 204 6,000  Level Atlanta Center
08:09PM 34.4011 -85.5192 302° West 171 197 6,000  Level Atlanta Center
08:10PM 34.4256 -85.5700 300° West 171 197 6,000  Level Atlanta Center
08:11PM 34.4458 -85.6181 297° West 171 197 6,000  Level Atlanta Center
08:12PM 34.4681 -85.6714 297° West 171 197 6,000  Level Atlanta Center
08:13PM 34.4925 -85.7172 303° West 171 197 6,000  Level Atlanta Center
08:14PM 34.5147 -85.7681 298° West 171 197 6,000  Level Atlanta Center
08:15PM 34.5328 -85.8139 296° West 166 191 6,000  Level Atlanta Center
08:17PM 34.5630 -85.8745 301° West  Level FlightAware Approximate
08:24PM 34.7098 -86.2224 287° West  Level FlightAware Approximate
08:25PM 34.7299 -86.2720 306° West  Level FlightAware Approximate
08:26PM 34.7570 -86.3173 306° West  Level FlightAware Approximate
08:27PM 34.7797 -86.3659 296° West  Level FlightAware Approximate
08:28PM 34.7999 -86.4164 296° West  Level FlightAware Approximate
08:29PM 34.8172 -86.4684 292° West  Level FlightAware Approximate
08:30PM 34.8350 -86.5201 301° West  Level FlightAware Approximate
08:31PM 34.8500 -86.5500 301° West  Level FlightAware Approximate
08:32PM 34.8614 -86.5575 301° West  Level Estimated